CGO184 EDDS-LOWS
Flight info
| Callsign | CGO184 |
|---|---|
| Flight time | 1h 2m |
| Altitude | 21000 |
| Route | ABTAL4B/25 ABTAL L173 RIXED/N0254F230 Y161 RIDAR Z98 WLD T702 BADIT BADIT2R |
| Aircraft | P46T/L-SBDGRWY/SB1 |
Departure
| Time | 2026-05-07 21:37 |
|---|---|
| Airport | Stuttgart Airport (EDDS) |
Arrival
| Time | 2026-05-07 22:39 |
|---|---|
| Airport | Salzburg Airport (LOWS) |
| Time | Latitude | Longitude | Altitude | Speed | Heading |
|---|---|---|---|---|---|
| 2026-05-07 21:15 | 48.69173 | 9.21352 | 1254 ft | 0 kts | 352° |
| 2026-05-07 21:30 | 48.69178 | 9.21341 | 1260 ft | 4 kts | 252° |
| 2026-05-07 21:30 | 48.69151 | 9.21307 | 1257 ft | 4 kts | 250° |
| 2026-05-07 21:30 | 48.69118 | 9.21300 | 1254 ft | 6 kts | 162° |
| 2026-05-07 21:31 | 48.69092 | 9.21373 | 1251 ft | 11 kts | 75° |
| 2026-05-07 21:31 | 48.69127 | 9.21542 | 1255 ft | 20 kts | 72° |
| 2026-05-07 21:31 | 48.69163 | 9.21746 | 1242 ft | 20 kts | 73° |
| 2026-05-07 21:31 | 48.69201 | 9.21948 | 1235 ft | 20 kts | 74° |
| 2026-05-07 21:32 | 48.69239 | 9.22151 | 1228 ft | 20 kts | 74° |
| 2026-05-07 21:32 | 48.69277 | 9.22353 | 1226 ft | 20 kts | 75° |
| 2026-05-07 21:32 | 48.69310 | 9.22523 | 1223 ft | 20 kts | 73° |
| 2026-05-07 21:32 | 48.69348 | 9.22724 | 1221 ft | 20 kts | 72° |
| 2026-05-07 21:33 | 48.69386 | 9.22922 | 1218 ft | 20 kts | 73° |
| 2026-05-07 21:33 | 48.69398 | 9.22983 | 1217 ft | 5 kts | 75° |
| 2026-05-07 21:33 | 48.69398 | 9.22986 | 1217 ft | 0 kts | 75° |
| 2026-05-07 21:33 | 48.69405 | 9.23028 | 1217 ft | 10 kts | 82° |
| 2026-05-07 21:34 | 48.69367 | 9.23155 | 1214 ft | 19 kts | 154° |
| 2026-05-07 21:34 | 48.69278 | 9.23191 | 1213 ft | 0 kts | 165° |
| 2026-05-07 21:35 | 48.69276 | 9.23192 | 1213 ft | 2 kts | 164° |
| 2026-05-07 21:35 | 48.69190 | 9.23213 | 1214 ft | 22 kts | 210° |
| 2026-05-07 21:35 | 48.69162 | 9.23127 | 1217 ft | 23 kts | 256° |
| 2026-05-07 21:36 | 48.69067 | 9.22635 | 1223 ft | 72 kts | 253° |
| 2026-05-07 21:36 | 48.68892 | 9.21713 | 1245 ft | 107 kts | 253° |
| 2026-05-07 21:36 | 48.68654 | 9.20559 | 1421 ft | 122 kts | 254° |
| 2026-05-07 21:36 | 48.68390 | 9.19178 | 1509 ft | 147 kts | 258° |
| 2026-05-07 21:37 | 48.68201 | 9.17638 | 1771 ft | 153 kts | 254° |
| 2026-05-07 21:37 | 48.67880 | 9.16071 | 2069 ft | 158 kts | 253° |
| 2026-05-07 21:37 | 48.67557 | 9.14457 | 2373 ft | 162 kts | 252° |
| 2026-05-07 21:37 | 48.67213 | 9.12818 | 2661 ft | 164 kts | 252° |
| 2026-05-07 21:38 | 48.66850 | 9.11172 | 2946 ft | 165 kts | 246° |
| 2026-05-07 21:38 | 48.66070 | 9.09958 | 3226 ft | 165 kts | 201° |
| 2026-05-07 21:38 | 48.64945 | 9.09899 | 3511 ft | 165 kts | 160° |
| 2026-05-07 21:38 | 48.63935 | 9.10629 | 3788 ft | 153 kts | 152° |
| 2026-05-07 21:39 | 48.63016 | 9.11328 | 4048 ft | 142 kts | 153° |
| 2026-05-07 21:39 | 48.62158 | 9.11985 | 4310 ft | 136 kts | 150° |
| 2026-05-07 21:39 | 48.61524 | 9.12998 | 4581 ft | 136 kts | 116° |
| 2026-05-07 21:39 | 48.61338 | 9.14387 | 4864 ft | 136 kts | 86° |
| 2026-05-07 21:40 | 48.61413 | 9.15825 | 5140 ft | 138 kts | 86° |
| 2026-05-07 21:40 | 48.61471 | 9.17289 | 5422 ft | 141 kts | 86° |
| 2026-05-07 21:40 | 48.61537 | 9.18780 | 5710 ft | 143 kts | 86° |
| 2026-05-07 21:40 | 48.61603 | 9.20284 | 5990 ft | 144 kts | 86° |
| 2026-05-07 21:41 | 48.61670 | 9.21790 | 6275 ft | 146 kts | 86° |
| 2026-05-07 21:41 | 48.61738 | 9.23336 | 6557 ft | 148 kts | 86° |
| 2026-05-07 21:41 | 48.61806 | 9.24890 | 6826 ft | 149 kts | 86° |
| 2026-05-07 21:41 | 48.61979 | 9.26428 | 7097 ft | 149 kts | 66° |
| 2026-05-07 21:42 | 48.62412 | 9.27861 | 7371 ft | 150 kts | 66° |
| 2026-05-07 21:42 | 48.62820 | 9.29325 | 7641 ft | 151 kts | 66° |
| 2026-05-07 21:42 | 48.63229 | 9.30778 | 7920 ft | 152 kts | 66° |
| 2026-05-07 21:42 | 48.63647 | 9.32255 | 8202 ft | 153 kts | 65° |
| 2026-05-07 21:43 | 48.64067 | 9.33741 | 8484 ft | 154 kts | 66° |
| 2026-05-07 21:43 | 48.64491 | 9.35239 | 8766 ft | 155 kts | 66° |
| 2026-05-07 21:43 | 48.64915 | 9.36741 | 9052 ft | 156 kts | 65° |
| 2026-05-07 21:43 | 48.65337 | 9.38235 | 9336 ft | 157 kts | 65° |
| 2026-05-07 21:44 | 48.65767 | 9.39760 | 9630 ft | 157 kts | 65° |
| 2026-05-07 21:44 | 48.66197 | 9.41287 | 9923 ft | 158 kts | 65° |
| 2026-05-07 21:44 | 48.66629 | 9.42820 | 10192 ft | 159 kts | 65° |
| 2026-05-07 21:44 | 48.67063 | 9.44363 | 10457 ft | 159 kts | 65° |
| 2026-05-07 21:45 | 48.67496 | 9.45902 | 10723 ft | 159 kts | 65° |
| 2026-05-07 21:45 | 48.67925 | 9.47428 | 10996 ft | 159 kts | 65° |
| 2026-05-07 21:45 | 48.68360 | 9.48972 | 11266 ft | 160 kts | 65° |
| 2026-05-07 21:45 | 48.68799 | 9.50537 | 11545 ft | 163 kts | 65° |
| 2026-05-07 21:46 | 48.69243 | 9.52121 | 11829 ft | 165 kts | 65° |
| 2026-05-07 21:46 | 48.69692 | 9.53724 | 12113 ft | 166 kts | 65° |
| 2026-05-07 21:46 | 48.70144 | 9.55337 | 12400 ft | 166 kts | 65° |
| 2026-05-07 21:46 | 48.70597 | 9.56955 | 12689 ft | 167 kts | 65° |
| 2026-05-07 21:47 | 48.71045 | 9.58556 | 12974 ft | 167 kts | 65° |
| 2026-05-07 21:47 | 48.71500 | 9.60183 | 13267 ft | 168 kts | 65° |
| 2026-05-07 21:47 | 48.71955 | 9.61814 | 13561 ft | 168 kts | 65° |
| 2026-05-07 21:47 | 48.72413 | 9.63452 | 13860 ft | 168 kts | 65° |
| 2026-05-07 21:48 | 48.72867 | 9.65078 | 14119 ft | 168 kts | 65° |
| 2026-05-07 21:48 | 48.73322 | 9.66711 | 14382 ft | 168 kts | 65° |
| 2026-05-07 21:48 | 48.73773 | 9.68327 | 14643 ft | 168 kts | 65° |
| 2026-05-07 21:48 | 48.74230 | 9.69970 | 14910 ft | 169 kts | 65° |
| 2026-05-07 21:49 | 48.74687 | 9.71611 | 15177 ft | 169 kts | 65° |
| 2026-05-07 21:49 | 48.75147 | 9.73262 | 15449 ft | 171 kts | 65° |
| 2026-05-07 21:49 | 48.75610 | 9.74929 | 15724 ft | 172 kts | 65° |
| 2026-05-07 21:49 | 48.76078 | 9.76615 | 16006 ft | 174 kts | 66° |
| 2026-05-07 21:50 | 48.76544 | 9.78292 | 16287 ft | 176 kts | 65° |
| 2026-05-07 21:50 | 48.77021 | 9.80014 | 16573 ft | 177 kts | 66° |
| 2026-05-07 21:50 | 48.77500 | 9.81742 | 16858 ft | 178 kts | 66° |
| 2026-05-07 21:50 | 48.77982 | 9.83482 | 17147 ft | 180 kts | 66° |
| 2026-05-07 21:51 | 48.78468 | 9.85238 | 17435 ft | 182 kts | 65° |
| 2026-05-07 21:51 | 48.78960 | 9.87014 | 17737 ft | 184 kts | 66° |
| 2026-05-07 21:51 | 48.79449 | 9.88789 | 18030 ft | 185 kts | 66° |
| 2026-05-07 21:51 | 48.79950 | 9.90603 | 18332 ft | 187 kts | 65° |
| 2026-05-07 21:52 | 48.80454 | 9.92429 | 18601 ft | 188 kts | 65° |
| 2026-05-07 21:52 | 48.80962 | 9.94273 | 18866 ft | 190 kts | 65° |
| 2026-05-07 21:52 | 48.81305 | 9.95520 | 19038 ft | 190 kts | 65° |
| 2026-05-07 21:52 | 48.81812 | 9.97359 | 19314 ft | 191 kts | 65° |
| 2026-05-07 21:53 | 48.82491 | 9.99829 | 19667 ft | 192 kts | 65° |
| 2026-05-07 21:53 | 48.83005 | 10.01702 | 19947 ft | 193 kts | 65° |
| 2026-05-07 21:53 | 48.83521 | 10.03580 | 20217 ft | 193 kts | 65° |
| 2026-05-07 21:53 | 48.83870 | 10.04852 | 20402 ft | 193 kts | 65° |
| 2026-05-07 21:54 | 48.84386 | 10.06734 | 20685 ft | 193 kts | 65° |
| 2026-05-07 21:54 | 48.84897 | 10.08598 | 20959 ft | 193 kts | 65° |
| 2026-05-07 21:54 | 48.85356 | 10.10582 | 21010 ft | 207 kts | 80° |
| 2026-05-07 21:54 | 48.85316 | 10.12827 | 21031 ft | 219 kts | 98° |
| 2026-05-07 21:55 | 48.85113 | 10.15179 | 21027 ft | 230 kts | 98° |
| 2026-05-07 21:55 | 48.84913 | 10.17625 | 21032 ft | 237 kts | 97° |
| 2026-05-07 21:55 | 48.84714 | 10.20135 | 21037 ft | 242 kts | 97° |
| 2026-05-07 21:55 | 48.84509 | 10.22695 | 21036 ft | 246 kts | 98° |
| 2026-05-07 21:56 | 48.84302 | 10.25257 | 21037 ft | 248 kts | 98° |
| 2026-05-07 21:56 | 48.84090 | 10.27873 | 21040 ft | 250 kts | 98° |
| 2026-05-07 21:56 | 48.83876 | 10.30506 | 21037 ft | 252 kts | 98° |
| 2026-05-07 21:56 | 48.83662 | 10.33145 | 21040 ft | 251 kts | 98° |
| 2026-05-07 21:57 | 48.83446 | 10.35787 | 21039 ft | 251 kts | 98° |
| 2026-05-07 21:57 | 48.83233 | 10.38388 | 21042 ft | 251 kts | 98° |
| 2026-05-07 21:57 | 48.82883 | 10.40968 | 21034 ft | 249 kts | 112° |
| 2026-05-07 21:57 | 48.82050 | 10.43251 | 21032 ft | 246 kts | 130° |
| 2026-05-07 21:58 | 48.80901 | 10.45147 | 21032 ft | 244 kts | 137° |
| 2026-05-07 21:58 | 48.79728 | 10.47020 | 21031 ft | 245 kts | 136° |
| 2026-05-07 21:58 | 48.78560 | 10.48899 | 21034 ft | 245 kts | 137° |
| 2026-05-07 21:58 | 48.77386 | 10.50780 | 21032 ft | 245 kts | 137° |
| 2026-05-07 21:59 | 48.76213 | 10.52656 | 21036 ft | 245 kts | 137° |
| 2026-05-07 21:59 | 48.75037 | 10.54535 | 21033 ft | 246 kts | 137° |
| 2026-05-07 21:59 | 48.73861 | 10.56414 | 21033 ft | 246 kts | 137° |
| 2026-05-07 21:59 | 48.72684 | 10.58294 | 21035 ft | 246 kts | 137° |
| 2026-05-07 22:00 | 48.71505 | 10.60174 | 21030 ft | 246 kts | 137° |
| 2026-05-07 22:00 | 48.70328 | 10.62051 | 21029 ft | 246 kts | 137° |
| 2026-05-07 22:00 | 48.69165 | 10.63903 | 21027 ft | 246 kts | 137° |
| 2026-05-07 22:00 | 48.67986 | 10.65779 | 21025 ft | 246 kts | 137° |
| 2026-05-07 22:01 | 48.66807 | 10.67654 | 21024 ft | 246 kts | 137° |
| 2026-05-07 22:01 | 48.65624 | 10.69534 | 21027 ft | 246 kts | 137° |
| 2026-05-07 22:01 | 48.64444 | 10.71409 | 21021 ft | 246 kts | 137° |
| 2026-05-07 22:01 | 48.63264 | 10.73281 | 21019 ft | 246 kts | 137° |
| 2026-05-07 22:02 | 48.62084 | 10.75154 | 21018 ft | 246 kts | 137° |
| 2026-05-07 22:02 | 48.60903 | 10.77025 | 21015 ft | 246 kts | 137° |
| 2026-05-07 22:02 | 48.59768 | 10.78958 | 21013 ft | 248 kts | 128° |
| 2026-05-07 22:02 | 48.59016 | 10.81307 | 21011 ft | 251 kts | 109° |
| 2026-05-07 22:03 | 48.58743 | 10.83909 | 21014 ft | 252 kts | 92° |
| 2026-05-07 22:03 | 48.58684 | 10.86553 | 21013 ft | 252 kts | 92° |
| 2026-05-07 22:03 | 48.58612 | 10.89168 | 21014 ft | 252 kts | 93° |
| 2026-05-07 22:03 | 48.58538 | 10.91824 | 21016 ft | 253 kts | 93° |
| 2026-05-07 22:04 | 48.58465 | 10.94478 | 21017 ft | 253 kts | 93° |
| 2026-05-07 22:04 | 48.58393 | 10.97130 | 21016 ft | 253 kts | 93° |
| 2026-05-07 22:04 | 48.58319 | 10.99786 | 21014 ft | 253 kts | 93° |
| 2026-05-07 22:04 | 48.58245 | 11.02445 | 21014 ft | 253 kts | 93° |
| 2026-05-07 22:05 | 48.58171 | 11.05065 | 21008 ft | 252 kts | 93° |
| 2026-05-07 22:05 | 48.58096 | 11.07712 | 21007 ft | 252 kts | 93° |
| 2026-05-07 22:05 | 48.58020 | 11.10366 | 21008 ft | 253 kts | 93° |
| 2026-05-07 22:05 | 48.57883 | 11.13007 | 21009 ft | 251 kts | 103° |
| 2026-05-07 22:06 | 48.57345 | 11.15504 | 21021 ft | 250 kts | 112° |
| 2026-05-07 22:06 | 48.56760 | 11.17979 | 21021 ft | 250 kts | 111° |
| 2026-05-07 22:06 | 48.56184 | 11.20468 | 21020 ft | 251 kts | 111° |
| 2026-05-07 22:06 | 48.55603 | 11.22954 | 21024 ft | 251 kts | 111° |
| 2026-05-07 22:07 | 48.55020 | 11.25434 | 21024 ft | 251 kts | 111° |
| 2026-05-07 22:07 | 48.54442 | 11.27890 | 21024 ft | 251 kts | 111° |
| 2026-05-07 22:07 | 48.53857 | 11.30378 | 21019 ft | 251 kts | 111° |
| 2026-05-07 22:07 | 48.53269 | 11.32874 | 21018 ft | 251 kts | 111° |
| 2026-05-07 22:08 | 48.52682 | 11.35362 | 21020 ft | 251 kts | 111° |
| 2026-05-07 22:08 | 48.52096 | 11.37846 | 21018 ft | 251 kts | 111° |
| 2026-05-07 22:08 | 48.51508 | 11.40336 | 21018 ft | 251 kts | 111° |
| 2026-05-07 22:08 | 48.50919 | 11.42826 | 21018 ft | 251 kts | 111° |
| 2026-05-07 22:09 | 48.50338 | 11.45277 | 21021 ft | 251 kts | 111° |
| 2026-05-07 22:09 | 48.49749 | 11.47762 | 21020 ft | 251 kts | 111° |
| 2026-05-07 22:09 | 48.49159 | 11.50246 | 21019 ft | 251 kts | 111° |
| 2026-05-07 22:09 | 48.48569 | 11.52728 | 21021 ft | 251 kts | 111° |
| 2026-05-07 22:10 | 48.47978 | 11.55214 | 21020 ft | 252 kts | 112° |
| 2026-05-07 22:10 | 48.47386 | 11.57700 | 21019 ft | 252 kts | 112° |
| 2026-05-07 22:10 | 48.46795 | 11.60175 | 21021 ft | 251 kts | 112° |
| 2026-05-07 22:10 | 48.46217 | 11.62589 | 21018 ft | 244 kts | 112° |
| 2026-05-07 22:11 | 48.45647 | 11.64964 | 21012 ft | 237 kts | 112° |
| 2026-05-07 22:11 | 48.45092 | 11.67272 | 21003 ft | 231 kts | 112° |
| 2026-05-07 22:11 | 48.44552 | 11.69518 | 21013 ft | 224 kts | 112° |
| 2026-05-07 22:11 | 48.44041 | 11.71639 | 20993 ft | 210 kts | 112° |
| 2026-05-07 22:12 | 48.43546 | 11.73689 | 20719 ft | 207 kts | 113° |
| 2026-05-07 22:12 | 48.43054 | 11.75719 | 20426 ft | 205 kts | 112° |
| 2026-05-07 22:12 | 48.42575 | 11.77707 | 20169 ft | 202 kts | 112° |
| 2026-05-07 22:12 | 48.42096 | 11.79688 | 19914 ft | 200 kts | 113° |
| 2026-05-07 22:13 | 48.41621 | 11.81658 | 19659 ft | 201 kts | 113° |
| 2026-05-07 22:13 | 48.41142 | 11.83630 | 19421 ft | 200 kts | 113° |
| 2026-05-07 22:13 | 48.40665 | 11.85600 | 19184 ft | 199 kts | 113° |
| 2026-05-07 22:13 | 48.40190 | 11.87561 | 18938 ft | 199 kts | 113° |
| 2026-05-07 22:14 | 48.39722 | 11.89489 | 18706 ft | 198 kts | 113° |
| 2026-05-07 22:14 | 48.39248 | 11.91439 | 18467 ft | 197 kts | 113° |
| 2026-05-07 22:14 | 48.38776 | 11.93380 | 18206 ft | 197 kts | 113° |
| 2026-05-07 22:14 | 48.38306 | 11.95313 | 17932 ft | 196 kts | 113° |
| 2026-05-07 22:15 | 48.37842 | 11.97216 | 17667 ft | 195 kts | 113° |
| 2026-05-07 22:15 | 48.37375 | 11.99132 | 17403 ft | 195 kts | 113° |
| 2026-05-07 22:15 | 48.36909 | 12.01046 | 17138 ft | 195 kts | 113° |
| 2026-05-07 22:15 | 48.36441 | 12.02960 | 16875 ft | 195 kts | 113° |
| 2026-05-07 22:16 | 48.35973 | 12.04874 | 16615 ft | 194 kts | 113° |
| 2026-05-07 22:16 | 48.35508 | 12.06774 | 16359 ft | 194 kts | 113° |
| 2026-05-07 22:16 | 48.35043 | 12.08674 | 16104 ft | 193 kts | 113° |
| 2026-05-07 22:16 | 48.34585 | 12.10545 | 15853 ft | 192 kts | 113° |
| 2026-05-07 22:17 | 48.34122 | 12.12434 | 15603 ft | 192 kts | 113° |
| 2026-05-07 22:17 | 48.33661 | 12.14311 | 15335 ft | 191 kts | 113° |
| 2026-05-07 22:17 | 48.33200 | 12.16183 | 15061 ft | 190 kts | 113° |
| 2026-05-07 22:17 | 48.32743 | 12.18047 | 14786 ft | 190 kts | 113° |
| 2026-05-07 22:18 | 48.32291 | 12.19883 | 14529 ft | 189 kts | 114° |
| 2026-05-07 22:18 | 48.31378 | 12.23588 | 14002 ft | 188 kts | 114° |
| 2026-05-07 22:18 | 48.30924 | 12.25426 | 13719 ft | 188 kts | 114° |
| 2026-05-07 22:19 | 48.30471 | 12.27262 | 13423 ft | 187 kts | 114° |
| 2026-05-07 22:19 | 48.30018 | 12.29097 | 13133 ft | 187 kts | 114° |
| 2026-05-07 22:19 | 48.29572 | 12.30901 | 12846 ft | 186 kts | 114° |
| 2026-05-07 22:19 | 48.29122 | 12.32720 | 12558 ft | 185 kts | 114° |
| 2026-05-07 22:20 | 48.28673 | 12.34531 | 12272 ft | 184 kts | 114° |
| 2026-05-07 22:20 | 48.28227 | 12.36331 | 11993 ft | 184 kts | 114° |
| 2026-05-07 22:20 | 48.27780 | 12.38133 | 11713 ft | 183 kts | 114° |
| 2026-05-07 22:20 | 48.27334 | 12.39926 | 11437 ft | 183 kts | 114° |
| 2026-05-07 22:21 | 48.26890 | 12.41717 | 11169 ft | 182 kts | 115° |
| 2026-05-07 22:21 | 48.26447 | 12.43495 | 10896 ft | 181 kts | 115° |
| 2026-05-07 22:21 | 48.26007 | 12.45266 | 10624 ft | 181 kts | 115° |
| 2026-05-07 22:21 | 48.25573 | 12.47007 | 10362 ft | 180 kts | 115° |
| 2026-05-07 22:22 | 48.25133 | 12.48774 | 10095 ft | 180 kts | 115° |
| 2026-05-07 22:22 | 48.24695 | 12.50527 | 9813 ft | 179 kts | 115° |
| 2026-05-07 22:22 | 48.24258 | 12.52277 | 9522 ft | 179 kts | 115° |
| 2026-05-07 22:22 | 48.23821 | 12.54025 | 9231 ft | 178 kts | 115° |
| 2026-05-07 22:23 | 48.23393 | 12.55741 | 8955 ft | 177 kts | 115° |
| 2026-05-07 22:23 | 48.22960 | 12.57471 | 8668 ft | 177 kts | 114° |
| 2026-05-07 22:23 | 48.22528 | 12.59198 | 8377 ft | 176 kts | 114° |
| 2026-05-07 22:23 | 48.22097 | 12.60920 | 8101 ft | 176 kts | 114° |
| 2026-05-07 22:24 | 48.21667 | 12.62637 | 7826 ft | 175 kts | 114° |
| 2026-05-07 22:24 | 48.21243 | 12.64326 | 7555 ft | 175 kts | 114° |
| 2026-05-07 22:24 | 48.20816 | 12.66028 | 7279 ft | 174 kts | 113° |
| 2026-05-07 22:24 | 48.20389 | 12.67732 | 7008 ft | 174 kts | 113° |
| 2026-05-07 22:25 | 48.19963 | 12.69425 | 6745 ft | 173 kts | 112° |
| 2026-05-07 22:25 | 48.19537 | 12.71119 | 6474 ft | 173 kts | 112° |
| 2026-05-07 22:25 | 48.19112 | 12.72807 | 6186 ft | 173 kts | 112° |
| 2026-05-07 22:25 | 48.18688 | 12.74491 | 5906 ft | 172 kts | 112° |
| 2026-05-07 22:26 | 48.18271 | 12.76146 | 5632 ft | 172 kts | 112° |
| 2026-05-07 22:26 | 48.17849 | 12.77819 | 5352 ft | 171 kts | 112° |
| 2026-05-07 22:26 | 48.17428 | 12.79487 | 5072 ft | 170 kts | 112° |
| 2026-05-07 22:26 | 48.17008 | 12.81152 | 4796 ft | 170 kts | 112° |
| 2026-05-07 22:27 | 48.16466 | 12.82670 | 4501 ft | 166 kts | 135° |
| 2026-05-07 22:27 | 48.15562 | 12.83683 | 4231 ft | 161 kts | 160° |
| 2026-05-07 22:27 | 48.14502 | 12.84133 | 3993 ft | 155 kts | 172° |
| 2026-05-07 22:27 | 48.13485 | 12.84503 | 3979 ft | 146 kts | 171° |
| 2026-05-07 22:28 | 48.12536 | 12.84850 | 3978 ft | 134 kts | 172° |
| 2026-05-07 22:28 | 48.11667 | 12.85167 | 3991 ft | 125 kts | 172° |
| 2026-05-07 22:28 | 48.10831 | 12.85468 | 3990 ft | 122 kts | 173° |
| 2026-05-07 22:28 | 48.10023 | 12.85760 | 3987 ft | 118 kts | 173° |
| 2026-05-07 22:29 | 48.09221 | 12.86048 | 3993 ft | 121 kts | 173° |
| 2026-05-07 22:29 | 48.08381 | 12.86351 | 3993 ft | 127 kts | 172° |
| 2026-05-07 22:29 | 48.07506 | 12.86665 | 3993 ft | 132 kts | 172° |
| 2026-05-07 22:29 | 48.06599 | 12.86992 | 4005 ft | 135 kts | 172° |
| 2026-05-07 22:30 | 48.05690 | 12.87321 | 4000 ft | 137 kts | 172° |
| 2026-05-07 22:30 | 48.04769 | 12.87653 | 3995 ft | 133 kts | 172° |
| 2026-05-07 22:30 | 48.03902 | 12.87968 | 3985 ft | 125 kts | 172° |
| 2026-05-07 22:30 | 48.03068 | 12.88269 | 3980 ft | 121 kts | 172° |
| 2026-05-07 22:31 | 48.02241 | 12.88567 | 3980 ft | 123 kts | 172° |
| 2026-05-07 22:31 | 48.01409 | 12.88867 | 3983 ft | 123 kts | 172° |
| 2026-05-07 22:31 | 48.00596 | 12.89160 | 3984 ft | 120 kts | 172° |
| 2026-05-07 22:31 | 47.99795 | 12.89308 | 3981 ft | 113 kts | 186° |
| 2026-05-07 22:32 | 47.99194 | 12.89313 | 3983 ft | 112 kts | 185° |
| 2026-05-07 22:32 | 47.98443 | 12.89340 | 3993 ft | 104 kts | 185° |
| 2026-05-07 22:32 | 47.97748 | 12.89366 | 3979 ft | 95 kts | 186° |
| 2026-05-07 22:32 | 47.97075 | 12.89389 | 3992 ft | 102 kts | 186° |
| 2026-05-07 22:33 | 47.96377 | 12.89576 | 3999 ft | 105 kts | 159° |
| 2026-05-07 22:33 | 47.95698 | 12.90006 | 4001 ft | 108 kts | 163° |
| 2026-05-07 22:33 | 47.95006 | 12.90452 | 4000 ft | 107 kts | 162° |
| 2026-05-07 22:33 | 47.94311 | 12.90889 | 4004 ft | 110 kts | 161° |
| 2026-05-07 22:34 | 47.93601 | 12.91342 | 4001 ft | 111 kts | 163° |
| 2026-05-07 22:34 | 47.92889 | 12.91799 | 4003 ft | 111 kts | 162° |
| 2026-05-07 22:34 | 47.92176 | 12.92249 | 3993 ft | 110 kts | 162° |
| 2026-05-07 22:34 | 47.91468 | 12.92698 | 3930 ft | 111 kts | 163° |
| 2026-05-07 22:35 | 47.90760 | 12.93150 | 3791 ft | 110 kts | 162° |
| 2026-05-07 22:35 | 47.90060 | 12.93597 | 3641 ft | 109 kts | 162° |
| 2026-05-07 22:35 | 47.89374 | 12.94028 | 3504 ft | 108 kts | 163° |
| 2026-05-07 22:35 | 47.88687 | 12.94468 | 3358 ft | 106 kts | 162° |
| 2026-05-07 22:36 | 47.88011 | 12.94900 | 3216 ft | 106 kts | 162° |
| 2026-05-07 22:36 | 47.87327 | 12.95331 | 3076 ft | 107 kts | 160° |
| 2026-05-07 22:36 | 47.86643 | 12.95768 | 2907 ft | 106 kts | 160° |
| 2026-05-07 22:36 | 47.85974 | 12.96191 | 2730 ft | 103 kts | 160° |
| 2026-05-07 22:37 | 47.85318 | 12.96609 | 2563 ft | 101 kts | 158° |
| 2026-05-07 22:37 | 47.84666 | 12.97019 | 2396 ft | 101 kts | 158° |
| 2026-05-07 22:37 | 47.84027 | 12.97427 | 2240 ft | 99 kts | 157° |
| 2026-05-07 22:37 | 47.83400 | 12.97823 | 2082 ft | 99 kts | 158° |
| 2026-05-07 22:38 | 47.82779 | 12.98209 | 1977 ft | 95 kts | 157° |
| 2026-05-07 22:38 | 47.82172 | 12.98610 | 1843 ft | 96 kts | 156° |
| 2026-05-07 22:38 | 47.81566 | 12.98996 | 1730 ft | 94 kts | 158° |
| 2026-05-07 22:38 | 47.80973 | 12.99376 | 1614 ft | 92 kts | 158° |
| 2026-05-07 22:39 | 47.80383 | 12.99746 | 1464 ft | 92 kts | 159° |
| 2026-05-07 22:39 | 47.79822 | 13.00095 | 1417 ft | 84 kts | 157° |
| 2026-05-07 22:39 | 47.79524 | 13.00277 | 1420 ft | 10 kts | 159° |
| 2026-05-07 22:39 | 47.79459 | 13.00314 | 1421 ft | 10 kts | 164° |
| 2026-05-07 22:40 | 47.79408 | 13.00251 | 1420 ft | 15 kts | 248° |
| 2026-05-07 22:40 | 47.79386 | 13.00170 | 1418 ft | 0 kts | 250° |